sensor_id;sensor_type;location;lat;lon;timestamp;P1;durP1;ratioP1;P2;durP2;ratioP2
495;SDS011;39559;48.630;9.162;2022-08-20T00:00:27;3.50;;;3.20;;
495;SDS011;39559;48.630;9.162;2022-08-20T00:02:56;5.20;;;3.30;;
495;SDS011;39559;48.630;9.162;2022-08-20T00:05:34;3.63;;;3.33;;
495;SDS011;39559;48.630;9.162;2022-08-20T00:08:04;3.50;;;3.20;;
495;SDS011;39559;48.630;9.162;2022-08-20T00:10:31;3.70;;;3.40;;
495;SDS011;39559;48.630;9.162;2022-08-20T00:12:58;3.43;;;3.13;;
495;SDS011;39559;48.630;9.162;2022-08-20T00:15:26;3.43;;;3.13;;
495;SDS011;39559;48.630;9.162;2022-08-20T00:19:26;3.47;;;3.17;;
495;SDS011;39559;48.630;9.162;2022-08-20T00:21:52;3.53;;;3.23;;
495;SDS011;39559;48.630;9.162;2022-08-20T00:24:18;4.37;;;3.60;;
495;SDS011;39559;48.630;9.162;2022-08-20T00:26:44;3.50;;;3.20;;
495;SDS011;39559;48.630;9.162;2022-08-20T00:29:09;4.20;;;3.80;;
495;SDS011;39559;48.630;9.162;2022-08-20T00:31:35;3.90;;;3.50;;
495;SDS011;39559;48.630;9.162;2022-08-20T00:34:01;4.00;;;3.70;;
495;SDS011;39559;48.630;9.162;2022-08-20T00:36:26;3.87;;;3.57;;
495;SDS011;39559;48.630;9.162;2022-08-20T00:38:52;6.33;;;3.40;;
495;SDS011;39559;48.630;9.162;2022-08-20T00:43:25;3.93;;;3.63;;
495;SDS011;39559;48.630;9.162;2022-08-20T00:46:01;4.13;;;3.73;;
495;SDS011;39559;48.630;9.162;2022-08-20T00:48:30;4.50;;;3.50;;
495;SDS011;39559;48.630;9.162;2022-08-20T00:51:19;3.63;;;3.33;;
495;SDS011;39559;48.630;9.162;2022-08-20T00:53:45;4.20;;;3.80;;
495;SDS011;39559;48.630;9.162;2022-08-20T00:56:12;4.17;;;3.87;;
495;SDS011;39559;48.630;9.162;2022-08-20T00:58:38;4.23;;;3.83;;
495;SDS011;39559;48.630;9.162;2022-08-20T01:01:06;4.20;;;3.80;;
495;SDS011;39559;48.630;9.162;2022-08-20T01:03:33;4.33;;;3.70;;
495;SDS011;39559;48.630;9.162;2022-08-20T01:07:19;4.10;;;3.70;;
495;SDS011;39559;48.630;9.162;2022-08-20T01:09:48;4.37;;;3.83;;
495;SDS011;39559;48.630;9.162;2022-08-20T01:12:15;4.20;;;3.80;;
495;SDS011;39559;48.630;9.162;2022-08-20T01:14:42;5.20;;;3.80;;
495;SDS011;39559;48.630;9.162;2022-08-20T01:17:10;5.33;;;3.90;;
495;SDS011;39559;48.630;9.162;2022-08-20T01:26:14;4.60;;;3.77;;
495;SDS011;39559;48.630;9.162;2022-08-20T01:31:17;4.00;;;3.60;;
495;SDS011;39559;48.630;9.162;2022-08-20T01:33:48;3.67;;;3.30;;
495;SDS011;39559;48.630;9.162;2022-08-20T01:36:16;5.20;;;3.80;;
495;SDS011;39559;48.630;9.162;2022-08-20T01:38:45;5.00;;;4.23;;
495;SDS011;39559;48.630;9.162;2022-08-20T01:43:47;4.00;;;3.67;;
495;SDS011;39559;48.630;9.162;2022-08-20T01:46:16;4.67;;;4.17;;
495;SDS011;39559;48.630;9.162;2022-08-20T01:48:42;4.77;;;3.97;;
495;SDS011;39559;48.630;9.162;2022-08-20T01:51:10;5.20;;;3.80;;
495;SDS011;39559;48.630;9.162;2022-08-20T01:55:11;3.90;;;3.50;;
495;SDS011;39559;48.630;9.162;2022-08-20T01:57:37;4.60;;;4.20;;
495;SDS011;39559;48.630;9.162;2022-08-20T02:00:08;4.63;;;4.20;;
495;SDS011;39559;48.630;9.162;2022-08-20T02:02:38;5.03;;;4.53;;
495;SDS011;39559;48.630;9.162;2022-08-20T02:05:05;4.40;;;4.00;;
495;SDS011;39559;48.630;9.162;2022-08-20T02:07:31;5.53;;;4.90;;
495;SDS011;39559;48.630;9.162;2022-08-20T02:09:57;6.70;;;4.07;;
495;SDS011;39559;48.630;9.162;2022-08-20T02:12:24;5.43;;;4.90;;
495;SDS011;39559;48.630;9.162;2022-08-20T02:14:51;6.20;;;4.40;;
495;SDS011;39559;48.630;9.162;2022-08-20T02:19:11;5.10;;;4.20;;
495;SDS011;39559;48.630;9.162;2022-08-20T02:21:43;4.70;;;4.20;;
495;SDS011;39559;48.630;9.162;2022-08-20T02:24:13;4.40;;;4.00;;
495;SDS011;39559;48.630;9.162;2022-08-20T02:26:39;5.80;;;4.80;;
495;SDS011;39559;48.630;9.162;2022-08-20T02:29:06;5.20;;;4.17;;
495;SDS011;39559;48.630;9.162;2022-08-20T02:31:33;4.80;;;4.40;;
495;SDS011;39559;48.630;9.162;2022-08-20T02:34:00;5.00;;;4.13;;
495;SDS011;39559;48.630;9.162;2022-08-20T02:36:28;5.50;;;5.00;;
495;SDS011;39559;48.630;9.162;2022-08-20T02:38:54;5.37;;;4.60;;
495;SDS011;39559;48.630;9.162;2022-08-20T02:43:04;4.40;;;4.10;;
495;SDS011;39559;48.630;9.162;2022-08-20T02:45:31;4.90;;;4.50;;
495;SDS011;39559;48.630;9.162;2022-08-20T02:48:02;5.63;;;5.03;;
495;SDS011;39559;48.630;9.162;2022-08-20T02:50:29;5.17;;;4.70;;
495;SDS011;39559;48.630;9.162;2022-08-20T02:52:55;6.40;;;5.10;;
495;SDS011;39559;48.630;9.162;2022-08-20T02:55:21;5.20;;;4.67;;
495;SDS011;39559;48.630;9.162;2022-08-20T02:57:47;4.68;;;4.28;;
495;SDS011;39559;48.630;9.162;2022-08-20T03:00:14;4.97;;;4.57;;
495;SDS011;39559;48.630;9.162;2022-08-20T03:02:44;4.70;;;4.30;;
495;SDS011;39559;48.630;9.162;2022-08-20T03:07:01;6.47;;;4.50;;
495;SDS011;39559;48.630;9.162;2022-08-20T03:09:29;5.40;;;4.60;;
495;SDS011;39559;48.630;9.162;2022-08-20T03:11:55;4.87;;;4.47;;
495;SDS011;39559;48.630;9.162;2022-08-20T03:14:20;5.00;;;4.60;;
495;SDS011;39559;48.630;9.162;2022-08-20T03:16:46;4.90;;;4.40;;
495;SDS011;39559;48.630;9.162;2022-08-20T03:19:12;6.90;;;4.90;;
495;SDS011;39559;48.630;9.162;2022-08-20T03:21:38;4.93;;;4.53;;
495;SDS011;39559;48.630;9.162;2022-08-20T03:24:04;4.87;;;4.47;;
495;SDS011;39559;48.630;9.162;2022-08-20T03:26:30;4.90;;;4.50;;
495;SDS011;39559;48.630;9.162;2022-08-20T03:30:57;4.88;;;4.47;;
495;SDS011;39559;48.630;9.162;2022-08-20T03:33:24;4.97;;;4.53;;
495;SDS011;39559;48.630;9.162;2022-08-20T03:35:51;5.23;;;4.80;;
495;SDS011;39559;48.630;9.162;2022-08-20T03:38:18;5.07;;;4.60;;
495;SDS011;39559;48.630;9.162;2022-08-20T03:40:45;5.40;;;5.00;;
495;SDS011;39559;48.630;9.162;2022-08-20T03:43:12;6.00;;;4.70;;
495;SDS011;39559;48.630;9.162;2022-08-20T03:45:39;5.00;;;4.50;;
495;SDS011;39559;48.630;9.162;2022-08-20T03:48:13;5.40;;;4.90;;
495;SDS011;39559;48.630;9.162;2022-08-20T03:50:41;5.20;;;4.70;;
495;SDS011;39559;48.630;9.162;2022-08-20T03:54:54;5.50;;;5.00;;
495;SDS011;39559;48.630;9.162;2022-08-20T03:57:20;5.05;;;4.60;;
495;SDS011;39559;48.630;9.162;2022-08-20T03:59:46;5.53;;;5.03;;
495;SDS011;39559;48.630;9.162;2022-08-20T04:02:12;4.70;;;4.17;;
495;SDS011;39559;48.630;9.162;2022-08-20T04:04:38;4.50;;;4.20;;
495;SDS011;39559;48.630;9.162;2022-08-20T04:07:12;5.03;;;4.63;;
495;SDS011;39559;48.630;9.162;2022-08-20T04:09:50;5.65;;;5.15;;
495;SDS011;39559;48.630;9.162;2022-08-20T04:12:17;5.53;;;5.00;;
495;SDS011;39559;48.630;9.162;2022-08-20T04:14:43;6.30;;;5.20;;
495;SDS011;39559;48.630;9.162;2022-08-20T04:18:48;6.07;;;5.10;;
495;SDS011;39559;48.630;9.162;2022-08-20T04:21:14;5.73;;;5.13;;
495;SDS011;39559;48.630;9.162;2022-08-20T04:23:40;5.37;;;4.87;;
495;SDS011;39559;48.630;9.162;2022-08-20T04:26:06;5.10;;;4.60;;
495;SDS011;39559;48.630;9.162;2022-08-20T04:28:32;6.60;;;5.90;;
495;SDS011;39559;48.630;9.162;2022-08-20T04:30:58;6.00;;;5.50;;
495;SDS011;39559;48.630;9.162;2022-08-20T04:33:26;5.78;;;5.28;;
495;SDS011;39559;48.630;9.162;2022-08-20T04:35:56;5.70;;;5.20;;
495;SDS011;39559;48.630;9.162;2022-08-20T04:38:27;6.03;;;5.30;;
495;SDS011;39559;48.630;9.162;2022-08-20T04:42:46;5.32;;;4.82;;
495;SDS011;39559;48.630;9.162;2022-08-20T04:45:12;5.80;;;5.30;;
495;SDS011;39559;48.630;9.162;2022-08-20T04:47:37;5.90;;;5.40;;
495;SDS011;39559;48.630;9.162;2022-08-20T04:50:03;6.00;;;5.43;;
495;SDS011;39559;48.630;9.162;2022-08-20T04:52:33;7.25;;;6.00;;
495;SDS011;39559;48.630;9.162;2022-08-20T04:55:00;5.77;;;5.27;;
495;SDS011;39559;48.630;9.162;2022-08-20T04:57:26;6.30;;;5.80;;
495;SDS011;39559;48.630;9.162;2022-08-20T04:59:52;7.17;;;6.10;;
495;SDS011;39559;48.630;9.162;2022-08-20T05:02:18;6.53;;;6.03;;
495;SDS011;39559;48.630;9.162;2022-08-20T05:06:44;6.23;;;5.73;;
495;SDS011;39559;48.630;9.162;2022-08-20T05:09:09;6.37;;;5.87;;
495;SDS011;39559;48.630;9.162;2022-08-20T05:11:35;7.13;;;5.83;;
495;SDS011;39559;48.630;9.162;2022-08-20T05:14:01;6.53;;;6.03;;
495;SDS011;39559;48.630;9.162;2022-08-20T05:16:32;6.40;;;5.90;;
495;SDS011;39559;48.630;9.162;2022-08-20T05:19:02;7.00;;;6.30;;
495;SDS011;39559;48.630;9.162;2022-08-20T05:21:27;6.33;;;5.70;;
495;SDS011;39559;48.630;9.162;2022-08-20T05:23:53;5.90;;;5.40;;
495;SDS011;39559;48.630;9.162;2022-08-20T05:26:19;6.67;;;6.07;;
495;SDS011;39559;48.630;9.162;2022-08-20T05:30:41;6.77;;;6.10;;
495;SDS011;39559;48.630;9.162;2022-08-20T05:33:10;6.60;;;6.00;;
495;SDS011;39559;48.630;9.162;2022-08-20T05:35:39;6.50;;;5.90;;
495;SDS011;39559;48.630;9.162;2022-08-20T05:38:06;6.60;;;5.90;;
495;SDS011;39559;48.630;9.162;2022-08-20T05:40:35;6.57;;;5.90;;
495;SDS011;39559;48.630;9.162;2022-08-20T05:43:01;5.93;;;5.43;;
495;SDS011;39559;48.630;9.162;2022-08-20T05:45:31;5.87;;;5.13;;
495;SDS011;39559;48.630;9.162;2022-08-20T05:48:08;5.37;;;4.73;;
495;SDS011;39559;48.630;9.162;2022-08-20T05:50:36;5.60;;;5.10;;
495;SDS011;39559;48.630;9.162;2022-08-20T05:54:37;5.78;;;5.28;;
495;SDS011;39559;48.630;9.162;2022-08-20T05:57:03;5.70;;;5.20;;
495;SDS011;39559;48.630;9.162;2022-08-20T05:59:29;5.97;;;5.37;;
495;SDS011;39559;48.630;9.162;2022-08-20T06:01:55;6.33;;;5.37;;
495;SDS011;39559;48.630;9.162;2022-08-20T06:04:20;5.80;;;5.30;;
495;SDS011;39559;48.630;9.162;2022-08-20T06:07:11;5.20;;;4.80;;
495;SDS011;39559;48.630;9.162;2022-08-20T06:09:36;6.53;;;5.27;;
495;SDS011;39559;48.630;9.162;2022-08-20T06:12:03;5.03;;;4.60;;
495;SDS011;39559;48.630;9.162;2022-08-20T06:14:31;6.27;;;5.07;;
495;SDS011;39559;48.630;9.162;2022-08-20T06:18:33;6.00;;;5.40;;
495;SDS011;39559;48.630;9.162;2022-08-20T06:20:59;5.63;;;5.13;;
495;SDS011;39559;48.630;9.162;2022-08-20T06:23:25;5.00;;;4.50;;
495;SDS011;39559;48.630;9.162;2022-08-20T06:25:51;6.03;;;5.03;;
495;SDS011;39559;48.630;9.162;2022-08-20T06:28:17;6.33;;;5.00;;
495;SDS011;39559;48.630;9.162;2022-08-20T06:30:43;5.80;;;5.30;;
495;SDS011;39559;48.630;9.162;2022-08-20T06:33:09;6.03;;;4.60;;
495;SDS011;39559;48.630;9.162;2022-08-20T06:35:34;5.17;;;4.77;;
495;SDS011;39559;48.630;9.162;2022-08-20T06:38:02;5.50;;;5.10;;
495;SDS011;39559;48.630;9.162;2022-08-20T06:42:31;5.13;;;4.60;;
495;SDS011;39559;48.630;9.162;2022-08-20T06:44:56;5.10;;;4.60;;
495;SDS011;39559;48.630;9.162;2022-08-20T06:47:23;5.20;;;4.80;;
495;SDS011;39559;48.630;9.162;2022-08-20T06:49:49;5.90;;;5.40;;
495;SDS011;39559;48.630;9.162;2022-08-20T06:52:15;8.47;;;6.00;;
495;SDS011;39559;48.630;9.162;2022-08-20T06:54:42;6.83;;;6.23;;
495;SDS011;39559;48.630;9.162;2022-08-20T06:57:08;7.00;;;6.40;;
495;SDS011;39559;48.630;9.162;2022-08-20T06:59:34;7.00;;;6.47;;
495;SDS011;39559;48.630;9.162;2022-08-20T07:02:00;7.67;;;6.80;;
495;SDS011;39559;48.630;9.162;2022-08-20T07:06:27;7.10;;;6.50;;
495;SDS011;39559;48.630;9.162;2022-08-20T07:08:53;7.50;;;6.90;;
495;SDS011;39559;48.630;9.162;2022-08-20T07:11:19;6.70;;;6.10;;
495;SDS011;39559;48.630;9.162;2022-08-20T07:13:45;6.53;;;6.00;;
495;SDS011;39559;48.630;9.162;2022-08-20T07:16:13;7.00;;;6.40;;
495;SDS011;39559;48.630;9.162;2022-08-20T07:18:39;6.47;;;5.97;;
495;SDS011;39559;48.630;9.162;2022-08-20T07:21:05;6.97;;;6.37;;
495;SDS011;39559;48.630;9.162;2022-08-20T07:23:31;6.87;;;6.27;;
495;SDS011;39559;48.630;9.162;2022-08-20T07:25:57;7.63;;;6.93;;
495;SDS011;39559;48.630;9.162;2022-08-20T07:30:24;7.23;;;6.60;;
495;SDS011;39559;48.630;9.162;2022-08-20T07:33:09;6.70;;;6.00;;
495;SDS011;39559;48.630;9.162;2022-08-20T07:35:38;6.83;;;6.23;;
495;SDS011;39559;48.630;9.162;2022-08-20T07:38:05;7.60;;;6.60;;
495;SDS011;39559;48.630;9.162;2022-08-20T07:40:33;7.47;;;6.77;;
495;SDS011;39559;48.630;9.162;2022-08-20T07:43:00;7.17;;;6.50;;
495;SDS011;39559;48.630;9.162;2022-08-20T07:45:27;6.80;;;6.20;;
495;SDS011;39559;48.630;9.162;2022-08-20T07:47:58;6.93;;;6.33;;
495;SDS011;39559;48.630;9.162;2022-08-20T07:50:34;7.40;;;6.70;;
495;SDS011;39559;48.630;9.162;2022-08-20T07:54:20;6.43;;;5.83;;
495;SDS011;39559;48.630;9.162;2022-08-20T07:56:45;7.93;;;7.13;;
495;SDS011;39559;48.630;9.162;2022-08-20T07:59:12;7.50;;;6.70;;
495;SDS011;39559;48.630;9.162;2022-08-20T08:01:38;7.60;;;7.00;;
495;SDS011;39559;48.630;9.162;2022-08-20T08:04:03;8.70;;;6.70;;
495;SDS011;39559;48.630;9.162;2022-08-20T08:06:29;9.20;;;6.90;;
495;SDS011;39559;48.630;9.162;2022-08-20T08:09:07;7.17;;;6.50;;
495;SDS011;39559;48.630;9.162;2022-08-20T08:11:38;6.47;;;5.97;;
495;SDS011;39559;48.630;9.162;2022-08-20T08:14:07;7.60;;;6.67;;
495;SDS011;39559;48.630;9.162;2022-08-20T08:18:18;8.00;;;6.60;;
495;SDS011;39559;48.630;9.162;2022-08-20T08:20:49;7.20;;;6.50;;
495;SDS011;39559;48.630;9.162;2022-08-20T08:23:18;7.50;;;6.80;;
495;SDS011;39559;48.630;9.162;2022-08-20T08:25:46;7.03;;;6.43;;
495;SDS011;39559;48.630;9.162;2022-08-20T08:28:13;7.27;;;6.60;;
495;SDS011;39559;48.630;9.162;2022-08-20T08:30:39;7.40;;;6.70;;
495;SDS011;39559;48.630;9.162;2022-08-20T08:33:16;7.43;;;6.70;;
495;SDS011;39559;48.630;9.162;2022-08-20T08:35:52;7.40;;;6.70;;
495;SDS011;39559;48.630;9.162;2022-08-20T08:38:20;7.27;;;6.67;;
495;SDS011;39559;48.630;9.162;2022-08-20T08:42:23;7.10;;;6.50;;
495;SDS011;39559;48.630;9.162;2022-08-20T08:44:58;7.50;;;6.80;;
495;SDS011;39559;48.630;9.162;2022-08-20T08:47:28;6.50;;;5.90;;
495;SDS011;39559;48.630;9.162;2022-08-20T08:49:58;7.60;;;6.90;;
495;SDS011;39559;48.630;9.162;2022-08-20T08:52:27;7.27;;;6.60;;
495;SDS011;39559;48.630;9.162;2022-08-20T08:54:57;6.87;;;6.27;;
495;SDS011;39559;48.630;9.162;2022-08-20T08:57:25;7.07;;;6.47;;
495;SDS011;39559;48.630;9.162;2022-08-20T09:00:12;7.40;;;6.50;;
495;SDS011;39559;48.630;9.162;2022-08-20T09:02:52;7.13;;;6.53;;
495;SDS011;39559;48.630;9.162;2022-08-20T09:06:11;7.03;;;6.43;;
495;SDS011;39559;48.630;9.162;2022-08-20T09:08:52;7.10;;;6.50;;
495;SDS011;39559;48.630;9.162;2022-08-20T09:11:22;6.93;;;6.43;;
495;SDS011;39559;48.630;9.162;2022-08-20T09:13:49;9.40;;;6.40;;
495;SDS011;39559;48.630;9.162;2022-08-20T09:16:16;7.27;;;6.57;;
495;SDS011;39559;48.630;9.162;2022-08-20T09:18:41;6.30;;;5.80;;
495;SDS011;39559;48.630;9.162;2022-08-20T09:21:07;6.97;;;6.37;;
495;SDS011;39559;48.630;9.162;2022-08-20T09:23:33;6.43;;;5.83;;
495;SDS011;39559;48.630;9.162;2022-08-20T09:25:59;6.13;;;5.63;;
495;SDS011;39559;48.630;9.162;2022-08-20T09:30:05;6.03;;;5.53;;
495;SDS011;39559;48.630;9.162;2022-08-20T09:32:32;6.63;;;6.07;;
495;SDS011;39559;48.630;9.162;2022-08-20T09:34:58;6.90;;;6.27;;
495;SDS011;39559;48.630;9.162;2022-08-20T09:37:25;7.77;;;5.87;;
495;SDS011;39559;48.630;9.162;2022-08-20T09:39:53;7.40;;;6.03;;
495;SDS011;39559;48.630;9.162;2022-08-20T09:42:23;6.30;;;5.80;;
495;SDS011;39559;48.630;9.162;2022-08-20T09:44:51;6.30;;;5.70;;
495;SDS011;39559;48.630;9.162;2022-08-20T09:47:17;6.47;;;5.87;;
495;SDS011;39559;48.630;9.162;2022-08-20T09:49:43;6.80;;;6.30;;
495;SDS011;39559;48.630;9.162;2022-08-20T09:54:01;6.10;;;5.60;;
495;SDS011;39559;48.630;9.162;2022-08-20T09:56:27;6.97;;;6.40;;
495;SDS011;39559;48.630;9.162;2022-08-20T09:58:58;6.70;;;6.20;;
495;SDS011;39559;48.630;9.162;2022-08-20T10:01:23;6.97;;;6.20;;
495;SDS011;39559;48.630;9.162;2022-08-20T10:03:49;7.23;;;6.60;;
495;SDS011;39559;48.630;9.162;2022-08-20T10:06:15;7.87;;;7.17;;
495;SDS011;39559;48.630;9.162;2022-08-20T10:08:43;7.20;;;6.50;;
495;SDS011;39559;48.630;9.162;2022-08-20T10:11:10;7.13;;;6.43;;
495;SDS011;39559;48.630;9.162;2022-08-20T10:13:35;7.07;;;6.50;;
495;SDS011;39559;48.630;9.162;2022-08-20T10:17:56;7.47;;;6.87;;
495;SDS011;39559;48.630;9.162;2022-08-20T10:20:23;7.30;;;6.70;;
495;SDS011;39559;48.630;9.162;2022-08-20T10:22:50;7.20;;;6.50;;
495;SDS011;39559;48.630;9.162;2022-08-20T10:25:15;7.60;;;7.00;;
495;SDS011;39559;48.630;9.162;2022-08-20T10:27:42;7.20;;;6.37;;
495;SDS011;39559;48.630;9.162;2022-08-20T10:30:08;7.30;;;6.40;;
495;SDS011;39559;48.630;9.162;2022-08-20T10:32:35;7.13;;;6.53;;
495;SDS011;39559;48.630;9.162;2022-08-20T10:35:01;8.17;;;6.20;;
495;SDS011;39559;48.630;9.162;2022-08-20T10:37:28;7.10;;;6.40;;
495;SDS011;39559;48.630;9.162;2022-08-20T10:41:52;6.83;;;6.03;;
495;SDS011;39559;48.630;9.162;2022-08-20T10:44:18;6.20;;;5.70;;
495;SDS011;39559;48.630;9.162;2022-08-20T10:46:44;4.70;;;4.30;;
495;SDS011;39559;48.630;9.162;2022-08-20T10:49:09;4.97;;;4.57;;
495;SDS011;39559;48.630;9.162;2022-08-20T10:51:35;5.00;;;4.50;;
495;SDS011;39559;48.630;9.162;2022-08-20T10:54:01;4.00;;;3.53;;
495;SDS011;39559;48.630;9.162;2022-08-20T10:56:26;3.57;;;3.27;;
495;SDS011;39559;48.630;9.162;2022-08-20T10:58:52;3.23;;;3.03;;
495;SDS011;39559;48.630;9.162;2022-08-20T11:01:18;3.33;;;3.03;;
495;SDS011;39559;48.630;9.162;2022-08-20T11:05:48;3.23;;;2.93;;
495;SDS011;39559;48.630;9.162;2022-08-20T11:08:13;2.90;;;2.70;;
495;SDS011;39559;48.630;9.162;2022-08-20T11:10:40;2.93;;;2.73;;
495;SDS011;39559;48.630;9.162;2022-08-20T11:13:06;3.33;;;3.03;;
495;SDS011;39559;48.630;9.162;2022-08-20T11:15:34;4.03;;;3.20;;
495;SDS011;39559;48.630;9.162;2022-08-20T11:18:03;3.33;;;3.07;;
495;SDS011;39559;48.630;9.162;2022-08-20T11:20:29;3.10;;;2.90;;
495;SDS011;39559;48.630;9.162;2022-08-20T11:22:56;3.33;;;3.03;;
495;SDS011;39559;48.630;9.162;2022-08-20T11:25:22;3.30;;;3.10;;
495;SDS011;39559;48.630;9.162;2022-08-20T11:29:43;3.50;;;3.20;;
495;SDS011;39559;48.630;9.162;2022-08-20T11:32:08;3.53;;;3.23;;
495;SDS011;39559;48.630;9.162;2022-08-20T11:34:34;3.30;;;3.00;;
495;SDS011;39559;48.630;9.162;2022-08-20T11:37:00;3.27;;;2.97;;
495;SDS011;39559;48.630;9.162;2022-08-20T11:39:26;3.60;;;3.30;;
495;SDS011;39559;48.630;9.162;2022-08-20T11:41:51;3.63;;;3.33;;
495;SDS011;39559;48.630;9.162;2022-08-20T11:44:17;3.50;;;3.20;;
495;SDS011;39559;48.630;9.162;2022-08-20T11:46:43;4.07;;;3.67;;
495;SDS011;39559;48.630;9.162;2022-08-20T11:49:08;4.20;;;3.80;;
495;SDS011;39559;48.630;9.162;2022-08-20T11:53:38;3.10;;;2.80;;
495;SDS011;39559;48.630;9.162;2022-08-20T11:56:04;4.00;;;3.60;;
495;SDS011;39559;48.630;9.162;2022-08-20T11:58:30;3.60;;;3.30;;
495;SDS011;39559;48.630;9.162;2022-08-20T12:00:57;3.80;;;3.50;;
495;SDS011;39559;48.630;9.162;2022-08-20T12:03:23;3.23;;;2.93;;
495;SDS011;39559;48.630;9.162;2022-08-20T12:05:49;3.10;;;2.80;;
495;SDS011;39559;48.630;9.162;2022-08-20T12:08:15;3.00;;;2.70;;
495;SDS011;39559;48.630;9.162;2022-08-20T12:10:41;3.13;;;2.63;;
495;SDS011;39559;48.630;9.162;2022-08-20T12:13:07;3.30;;;3.00;;
495;SDS011;39559;48.630;9.162;2022-08-20T12:17:34;3.00;;;2.80;;
495;SDS011;39559;48.630;9.162;2022-08-20T12:20:01;3.30;;;3.00;;
495;SDS011;39559;48.630;9.162;2022-08-20T12:22:30;3.00;;;2.80;;
495;SDS011;39559;48.630;9.162;2022-08-20T12:24:56;3.00;;;2.70;;
495;SDS011;39559;48.630;9.162;2022-08-20T12:27:23;2.80;;;2.60;;
495;SDS011;39559;48.630;9.162;2022-08-20T12:29:52;2.80;;;2.60;;
495;SDS011;39559;48.630;9.162;2022-08-20T12:32:19;2.90;;;2.57;;
495;SDS011;39559;48.630;9.162;2022-08-20T12:34:46;2.90;;;2.70;;
495;SDS011;39559;48.630;9.162;2022-08-20T12:37:13;3.00;;;2.70;;
495;SDS011;39559;48.630;9.162;2022-08-20T12:41:29;3.13;;;2.70;;
495;SDS011;39559;48.630;9.162;2022-08-20T12:43:55;2.97;;;2.50;;
495;SDS011;39559;48.630;9.162;2022-08-20T12:46:20;2.77;;;2.57;;
495;SDS011;39559;48.630;9.162;2022-08-20T12:48:46;3.70;;;2.40;;
495;SDS011;39559;48.630;9.162;2022-08-20T12:51:11;3.13;;;2.37;;
495;SDS011;39559;48.630;9.162;2022-08-20T12:53:37;2.60;;;2.40;;
495;SDS011;39559;48.630;9.162;2022-08-20T12:56:03;3.07;;;2.77;;
495;SDS011;39559;48.630;9.162;2022-08-20T12:58:29;2.57;;;2.37;;
495;SDS011;39559;48.630;9.162;2022-08-20T13:00:55;3.07;;;2.80;;
495;SDS011;39559;48.630;9.162;2022-08-20T13:05:24;2.83;;;2.63;;
495;SDS011;39559;48.630;9.162;2022-08-20T13:07:51;2.60;;;2.40;;
495;SDS011;39559;48.630;9.162;2022-08-20T13:10:19;2.70;;;2.50;;
495;SDS011;39559;48.630;9.162;2022-08-20T13:12:47;3.10;;;2.80;;
495;SDS011;39559;48.630;9.162;2022-08-20T13:15:13;3.57;;;2.93;;
495;SDS011;39559;48.630;9.162;2022-08-20T13:17:39;3.00;;;2.80;;
495;SDS011;39559;48.630;9.162;2022-08-20T13:20:06;7.93;;;3.10;;
495;SDS011;39559;48.630;9.162;2022-08-20T13:22:37;14.60;;;3.77;;
495;SDS011;39559;48.630;9.162;2022-08-20T13:25:04;3.50;;;3.20;;
495;SDS011;39559;48.630;9.162;2022-08-20T13:29:20;3.33;;;3.03;;
495;SDS011;39559;48.630;9.162;2022-08-20T13:31:45;3.57;;;3.27;;
495;SDS011;39559;48.630;9.162;2022-08-20T13:34:11;3.40;;;3.10;;
495;SDS011;39559;48.630;9.162;2022-08-20T13:36:37;3.60;;;3.30;;
495;SDS011;39559;48.630;9.162;2022-08-20T13:39:04;3.33;;;3.03;;
495;SDS011;39559;48.630;9.162;2022-08-20T13:41:31;3.57;;;3.27;;
495;SDS011;39559;48.630;9.162;2022-08-20T13:43:57;4.10;;;3.13;;
495;SDS011;39559;48.630;9.162;2022-08-20T13:46:22;4.50;;;3.53;;
495;SDS011;39559;48.630;9.162;2022-08-20T13:48:49;4.00;;;3.60;;
495;SDS011;39559;48.630;9.162;2022-08-20T13:53:15;3.53;;;3.23;;
495;SDS011;39559;48.630;9.162;2022-08-20T13:55:41;3.53;;;3.20;;
495;SDS011;39559;48.630;9.162;2022-08-20T13:58:07;4.10;;;3.27;;
495;SDS011;39559;48.630;9.162;2022-08-20T14:00:33;3.87;;;3.57;;
495;SDS011;39559;48.630;9.162;2022-08-20T14:02:59;4.50;;;3.60;;
495;SDS011;39559;48.630;9.162;2022-08-20T14:05:25;3.60;;;3.30;;
495;SDS011;39559;48.630;9.162;2022-08-20T14:07:51;3.60;;;3.30;;
495;SDS011;39559;48.630;9.162;2022-08-20T14:10:18;3.30;;;3.00;;
495;SDS011;39559;48.630;9.162;2022-08-20T14:12:48;3.70;;;3.33;;
495;SDS011;39559;48.630;9.162;2022-08-20T14:17:18;3.83;;;3.53;;
495;SDS011;39559;48.630;9.162;2022-08-20T14:19:49;4.10;;;3.70;;
495;SDS011;39559;48.630;9.162;2022-08-20T14:22:17;3.93;;;3.53;;
495;SDS011;39559;48.630;9.162;2022-08-20T14:24:46;3.80;;;3.50;;
495;SDS011;39559;48.630;9.162;2022-08-20T14:27:13;3.90;;;3.60;;
495;SDS011;39559;48.630;9.162;2022-08-20T14:29:41;3.90;;;3.60;;
495;SDS011;39559;48.630;9.162;2022-08-20T14:32:09;4.23;;;3.83;;
495;SDS011;39559;48.630;9.162;2022-08-20T14:34:35;4.00;;;3.70;;
495;SDS011;39559;48.630;9.162;2022-08-20T14:37:18;4.07;;;3.67;;
495;SDS011;39559;48.630;9.162;2022-08-20T14:41:05;3.93;;;3.63;;
495;SDS011;39559;48.630;9.162;2022-08-20T14:43:30;3.80;;;3.50;;
495;SDS011;39559;48.630;9.162;2022-08-20T14:45:56;4.20;;;3.80;;
495;SDS011;39559;48.630;9.162;2022-08-20T14:48:22;3.70;;;3.40;;
495;SDS011;39559;48.630;9.162;2022-08-20T14:50:49;3.73;;;3.43;;
495;SDS011;39559;48.630;9.162;2022-08-20T14:53:15;3.77;;;3.47;;
495;SDS011;39559;48.630;9.162;2022-08-20T14:55:41;3.80;;;3.50;;
495;SDS011;39559;48.630;9.162;2022-08-20T14:58:10;3.70;;;3.40;;
495;SDS011;39559;48.630;9.162;2022-08-20T15:00:37;4.03;;;3.57;;
495;SDS011;39559;48.630;9.162;2022-08-20T15:05:00;3.97;;;3.67;;
495;SDS011;39559;48.630;9.162;2022-08-20T15:07:30;4.23;;;3.43;;
495;SDS011;39559;48.630;9.162;2022-08-20T15:09:58;3.70;;;3.40;;
495;SDS011;39559;48.630;9.162;2022-08-20T15:12:26;3.73;;;3.30;;
495;SDS011;39559;48.630;9.162;2022-08-20T15:14:52;3.50;;;3.20;;
495;SDS011;39559;48.630;9.162;2022-08-20T15:17:19;3.70;;;3.40;;
495;SDS011;39559;48.630;9.162;2022-08-20T15:19:46;3.37;;;3.10;;
495;SDS011;39559;48.630;9.162;2022-08-20T15:22:13;4.47;;;3.57;;
495;SDS011;39559;48.630;9.162;2022-08-20T15:24:39;3.80;;;3.50;;
495;SDS011;39559;48.630;9.162;2022-08-20T15:28:55;3.90;;;3.50;;
495;SDS011;39559;48.630;9.162;2022-08-20T15:31:21;3.60;;;3.30;;
495;SDS011;39559;48.630;9.162;2022-08-20T15:33:47;3.73;;;3.33;;
495;SDS011;39559;48.630;9.162;2022-08-20T15:36:12;4.00;;;3.70;;
495;SDS011;39559;48.630;9.162;2022-08-20T15:38:38;4.23;;;3.83;;
495;SDS011;39559;48.630;9.162;2022-08-20T15:41:04;3.87;;;3.57;;
495;SDS011;39559;48.630;9.162;2022-08-20T15:43:30;4.00;;;3.70;;
495;SDS011;39559;48.630;9.162;2022-08-20T15:45:57;3.80;;;3.50;;
495;SDS011;39559;48.630;9.162;2022-08-20T15:48:34;3.87;;;3.57;;
495;SDS011;39559;48.630;9.162;2022-08-20T15:52:49;3.70;;;3.40;;
495;SDS011;39559;48.630;9.162;2022-08-20T15:55:15;4.10;;;3.80;;
495;SDS011;39559;48.630;9.162;2022-08-20T15:57:49;4.10;;;3.70;;
495;SDS011;39559;48.630;9.162;2022-08-20T16:00:44;3.97;;;3.67;;
495;SDS011;39559;48.630;9.162;2022-08-20T16:06:22;3.80;;;3.50;;
495;SDS011;39559;48.630;9.162;2022-08-20T16:16:49;4.13;;;3.73;;
495;SDS011;39559;48.630;9.162;2022-08-20T16:19:26;3.77;;;3.47;;
495;SDS011;39559;48.630;9.162;2022-08-20T16:21:56;3.80;;;3.50;;
495;SDS011;39559;48.630;9.162;2022-08-20T16:24:23;5.10;;;3.67;;
495;SDS011;39559;48.630;9.162;2022-08-20T16:29:25;3.87;;;3.57;;
495;SDS011;39559;48.630;9.162;2022-08-20T16:35:02;3.70;;;3.40;;
495;SDS011;39559;48.630;9.162;2022-08-20T16:37:46;3.77;;;3.47;;
495;SDS011;39559;48.630;9.162;2022-08-20T16:43:06;4.00;;;3.70;;
495;SDS011;39559;48.630;9.162;2022-08-20T16:45:50;3.50;;;3.20;;
495;SDS011;39559;48.630;9.162;2022-08-20T16:48:22;3.53;;;3.23;;
495;SDS011;39559;48.630;9.162;2022-08-20T16:51:02;3.60;;;3.30;;
495;SDS011;39559;48.630;9.162;2022-08-20T16:53:33;4.07;;;3.67;;
495;SDS011;39559;48.630;9.162;2022-08-20T16:55:59;3.70;;;3.40;;
495;SDS011;39559;48.630;9.162;2022-08-20T16:58:25;4.40;;;3.50;;